Southwick, Idaho
Current Conditions -  °F | °C
As of 12:53 PM on Saturday 22 Nov 2014 (Local Time) from KPUW Reporting Station
Clear Clear  
Wind Chill: 34°   Ceiling: Unl
Heat Index: 43°   Visibility: 10mi
Dew Point: 34°   Wind: 20mph
Humidity: 71%   Direction: 250°WSW
Pressure: 29.73"   Gusts: 28mph
Location:  46.6455°N, 116.545°W
Report Text: KPUW 222053Z AUTO 25017G24KT 10SM CLR 06/01 A2973 RMK AO2 PK WND 26027/2008 SLP076 T00610011 51014
Loading
Personal Weather Stations






























Interactive Weather Map New forecast layout! Learn more

10-Day Weather Forecast

Advertisements
Track Severe Weather on mobile